sensor_id;sensor_type;location;lat;lon;timestamp;pressure;altitude;pressure_sealevel;temperature;humidity
61740;BME280;47645;45.288;12.038;2022-08-21T00:03:30;1011.4211095214027;;;23.3072265625;69.54840938302605
61740;BME280;47645;45.288;12.038;2022-08-21T00:13:32;1011.376036890439;;;23.261328125;70.10040350709374
61740;BME280;47645;45.288;12.038;2022-08-21T00:23:34;1011.3784800651105;;;23.2765625;69.9760667619496
61740;BME280;47645;45.288;12.038;2022-08-21T00:33:34;1011.3673519775006;;;23.1287109375;68.31635262841569
61740;BME280;47645;45.288;12.038;2022-08-21T00:43:38;1011.3273235150092;;;23.1185546875;67.55939463062343
61740;BME280;47645;45.288;12.038;2022-08-21T00:53:38;1011.3593314671931;;;23.2205078125;67.62352175547444
61740;BME280;47645;45.288;12.038;2022-08-21T01:03:38;1011.3168068004104;;;22.9962890625;70.05990661696097
61740;BME280;47645;45.288;12.038;2022-08-21T01:13:40;1011.2400495843764;;;23.2154296875;65.30081409754298
61740;BME280;47645;45.288;12.038;2022-08-21T01:23:43;1011.1919908377772;;;22.5375;72.12139719560295
61740;BME280;47645;45.288;12.038;2022-08-21T01:33:41;1011.0290640668424;;;22.35390625;74.46186924154958
61740;BME280;47645;45.288;12.038;2022-08-21T01:43:43;1011.0529385075126;;;22.0787109375;75.8896052119814
61740;BME280;47645;45.288;12.038;2022-08-21T01:53:44;1011.0103629069749;;;21.8392578125;77.68204467641537
61740;BME280;47645;45.288;12.038;2022-08-21T02:03:45;1011.006893291702;;;21.51796875;80.50622972567858
61740;BME280;47645;45.288;12.038;2022-08-21T02:13:46;1011.0446934794494;;;21.721875;79.61365869030287
61740;BME280;47645;45.288;12.038;2022-08-21T02:23:47;1010.9523148656907;;;21.589453125;79.57394468985
61740;BME280;47645;45.288;12.038;2022-08-21T02:33:48;1010.8323048799846;;;21.6607421875;79.03385287628618
61740;BME280;47645;45.288;12.038;2022-08-21T02:43:50;1010.7518200271599;;;21.803515625;72.16100550025668
61740;BME280;47645;45.288;12.038;2022-08-21T02:53:51;1010.7151038429214;;;21.793359375;79.36513483870277
61740;BME280;47645;45.288;12.038;2022-08-21T03:03:52;1010.6820551634299;;;21.599609375;78.18610682074225
61740;BME280;47645;45.288;12.038;2022-08-21T03:13:53;1010.7550888302419;;;21.29375;82.02712290775716
61740;BME280;47645;45.288;12.038;2022-08-21T03:23:54;1010.7380336590568;;;21.38046875;81.69425083830853
61740;BME280;47645;45.288;12.038;2022-08-21T03:33:56;1010.7302264552719;;;21.171484375;82.87850829127237
61740;BME280;47645;45.288;12.038;2022-08-21T03:43:56;1010.6942462676551;;;21.0236328125;83.90878929832888
61740;BME280;47645;45.288;12.038;2022-08-21T03:53:58;1010.6915666077965;;;20.89609375;83.81530035594969
61740;BME280;47645;45.288;12.038;2022-08-21T04:03:59;1010.7926748290203;;;20.9115234375;83.28289020328528
61740;BME280;47645;45.288;12.038;2022-08-21T04:14:00;1010.8763072075153;;;20.773828125;83.21995407302659
61740;BME280;47645;45.288;12.038;2022-08-21T04:24:01;1010.8920029997347;;;20.5904296875;84.21712823991614
61740;BME280;47645;45.288;12.038;2022-08-21T04:34:02;1010.9711917839962;;;20.8451171875;80.81481898102598
61740;BME280;47645;45.288;12.038;2022-08-21T04:44:03;1010.9952685157218;;;21.003125;78.04331911720097
61740;BME280;47645;45.288;12.038;2022-08-21T04:54:09;1010.9941413073584;;;21.201953125;78.10182869304678
61740;BME280;47645;45.288;12.038;2022-08-21T05:04:08;1011.0227548543619;;;21.0287109375;78.43340797833277
61740;BME280;47645;45.288;12.038;2022-08-21T05:14:06;1010.986944079082;;;21.706640625;75.76867509434328
61740;BME280;47645;45.288;12.038;2022-08-21T05:24:08;1010.9718727163622;;;21.910546875;73.07063751908294
61740;BME280;47645;45.288;12.038;2022-08-21T05:34:09;1010.961714592623;;;21.9869140625;72.45917571778989
61740;BME280;47645;45.288;12.038;2022-08-21T05:44:10;1010.9157267716402;;;22.2572265625;71.12565663355365
61740;BME280;47645;45.288;12.038;2022-08-21T05:54:11;1011.0257853802069;;;22.6087890625;70.44626780416874
61740;BME280;47645;45.288;12.038;2022-08-21T06:04:12;1011.0666144644558;;;22.6138671875;69.75387622697319
61740;BME280;47645;45.288;12.038;2022-08-21T06:14:14;1011.0518101712191;;;23.03203125;69.86794884937744
61740;BME280;47645;45.288;12.038;2022-08-21T06:24:14;1011.0123089632827;;;23.077734375;71.40481423967694
61740;BME280;47645;45.288;12.038;2022-08-21T06:34:16;1011.000582619716;;;23.465234375;71.83797720543242
61740;BME280;47645;45.288;12.038;2022-08-21T06:44:17;1010.9539725034108;;;23.7302734375;71.37009233361334
61740;BME280;47645;45.288;12.038;2022-08-21T06:54:17;1010.942207255423;;;24.2859375;71.06362973695407
61740;BME280;47645;45.288;12.038;2022-08-21T07:04:20;1011.0148727001055;;;24.387890625;69.14146577281026
61740;BME280;47645;45.288;12.038;2022-08-21T07:14:20;1011.0341222320067;;;24.826171875;69.66340145539269
61740;BME280;47645;45.288;12.038;2022-08-21T07:24:21;1011.0725574654032;;;24.928125;70.44038726416342
61740;BME280;47645;45.288;12.038;2022-08-21T07:34:22;1011.094611774746;;;25.3615234375;71.42948796786
61740;BME280;47645;45.288;12.038;2022-08-21T07:44:23;1011.0843005741085;;;25.4634765625;65.62612416027383
61740;BME280;47645;45.288;12.038;2022-08-21T07:54:24;1011.0765474675262;;;25.9119140625;67.12176858688572
61740;BME280;47645;45.288;12.038;2022-08-21T08:04:26;1011.0112162938061;;;26.2076171875;62.73876351148267
61740;BME280;47645;45.288;12.038;2022-08-21T08:14:27;1011.0032140601754;;;26.681640625;60.40080366311693
61740;BME280;47645;45.288;12.038;2022-08-21T08:24:28;1010.9376450170499;;;26.370703125;59.57790642578954
61740;BME280;47645;45.288;12.038;2022-08-21T08:39:30;1010.8454315550143;;;27.1251953125;55.665116335957734
61740;BME280;47645;45.288;12.038;2022-08-21T08:44:31;1010.8012902822014;;;26.982421875;56.69299454737451
61740;BME280;47645;45.288;12.038;2022-08-21T08:54:37;1010.831139218092;;;27.7470703125;52.79632162314488
61740;BME280;47645;45.288;12.038;2022-08-21T09:04:34;1010.8035527922414;;;27.981640625;51.41740011601301
61740;BME280;47645;45.288;12.038;2022-08-21T09:14:50;1010.7571425916308;;;28.3232421875;52.97432231696574
61740;BME280;47645;45.288;12.038;2022-08-21T09:24:44;1010.6681157511193;;;28.58828125;52.32261519741134
61740;BME280;47645;45.288;12.038;2022-08-21T09:34:38;1010.550972949388;;;29.3833984375;50.02344095283223
61740;BME280;47645;45.288;12.038;2022-08-21T09:44:41;1010.53693883431;;;29.8984375;49.75818672105703
61740;BME280;47645;45.288;12.038;2022-08-21T09:54:41;1010.5226670439807;;;30.836328125;46.5266049642591
61740;BME280;47645;45.288;12.038;2022-08-21T10:04:50;1010.4358022449187;;;31.458203125;43.93565730955102
61740;BME280;47645;45.288;12.038;2022-08-21T10:14:50;1010.4054373702733;;;31.7029296875;43.24261270491207
61740;BME280;47645;45.288;12.038;2022-08-21T10:24:51;1010.4285538313544;;;32.6001953125;39.476217819155266
61740;BME280;47645;45.288;12.038;2022-08-21T10:34:53;1010.3473853082262;;;33.625;38.93770007230477
61740;BME280;47645;45.288;12.038;2022-08-21T10:44:59;1010.2404401683067;;;34.1142578125;38.57860569178473
61740;BME280;47645;45.288;12.038;2022-08-21T10:54:55;1010.2545587178631;;;34.5884765625;39.14366550567561
61740;BME280;47645;45.288;12.038;2022-08-21T11:04:55;1010.1535258522649;;;35.144140625;37.84568454666152
61740;BME280;47645;45.288;12.038;2022-08-21T11:14:57;1010.1659520874528;;;35.6232421875;31.969702350740338
61740;BME280;47645;45.288;12.038;2022-08-21T11:25:03;1010.1035852900845;;;36.3880859375;36.24229762034937
61740;BME280;47645;45.288;12.038;2022-08-21T11:35:05;1009.9870105266215;;;37.142578125;35.06198174896049
61740;BME280;47645;45.288;12.038;2022-08-21T11:45:12;1009.8954937326345;;;37.2904296875;36.348561752907926
61740;BME280;47645;45.288;12.038;2022-08-21T11:55:07;1009.9033002395929;;;37.2853515625;37.27352720953426
61740;BME280;47645;45.288;12.038;2022-08-21T12:05:05;1009.9457741408233;;;36.230078125;38.238672464155535
61740;BME280;47645;45.288;12.038;2022-08-21T12:10:07;1009.8905710177164;;;36.7703125;38.519115928302924
61740;BME280;47645;45.288;12.038;2022-08-21T12:20:33;1009.8508615549034;;;37.1119140625;37.8837976020298
61740;BME280;47645;45.288;12.038;2022-08-21T12:30:21;1009.7348658376244;;;37.346484375;38.644844440213696
61740;BME280;47645;45.288;12.038;2022-08-21T12:40:13;1009.5707260759639;;;37.9685546875;36.84039664806927
61740;BME280;47645;45.288;12.038;2022-08-21T12:50:16;1009.4247737210277;;;37.8359375;35.55193104960649
61740;BME280;47645;45.288;12.038;2022-08-21T13:00:21;1009.4089236506494;;;38.412109375;36.84659864119461
61740;BME280;47645;45.288;12.038;2022-08-21T13:10:20;1009.2791951939106;;;38.3763671875;36.97247445854082
61740;BME280;47645;45.288;12.038;2022-08-21T13:20:21;1009.2326861461302;;;38.529296875;36.581726472207905
61740;BME280;47645;45.288;12.038;2022-08-21T13:30:22;1009.115217159449;;;38.6669921875;36.63943338709693
61740;BME280;47645;45.288;12.038;2022-08-21T13:40:25;1009.0448637736829;;;36.85703125;36.480008414148294
61740;BME280;47645;45.288;12.038;2022-08-21T13:50:24;1008.948473311662;;;38.3916015625;36.52360520696912
61740;BME280;47645;45.288;12.038;2022-08-21T14:00:27;1009.0047245382184;;;36.066796875;37.89516990783324
61740;BME280;47645;45.288;12.038;2022-08-21T14:10:28;1008.808405167022;;;36.85703125;38.18456205221428
61740;BME280;47645;45.288;12.038;2022-08-21T14:20:34;1008.7332388927746;;;37.9125;36.93099443599617
61740;BME280;47645;45.288;12.038;2022-08-21T14:30:34;1008.6681086095107;;;38.1775390625;35.98856976806414
61740;BME280;47645;45.288;12.038;2022-08-21T14:40:33;1008.5332906022281;;;38.1009765625;35.49382756723116
61740;BME280;47645;45.288;12.038;2022-08-21T14:50:35;1008.421852591832;;;37.917578125;36.72187806011447
61740;BME280;47645;45.288;12.038;2022-08-21T15:00:37;1008.3758624387202;;;37.953125;35.14931212446507
61740;BME280;47645;45.288;12.038;2022-08-21T15:10:39;1008.2564741807797;;;37.85625;35.754943743082805
61740;BME280;47645;45.288;12.038;2022-08-21T15:20:41;1008.2295802080039;;;37.759375;35.51144818599461
61740;BME280;47645;45.288;12.038;2022-08-21T15:30:44;1008.1684192014458;;;37.7390625;35.40398276320301
61740;BME280;47645;45.288;12.038;2022-08-21T15:40:45;1008.1420746672115;;;37.4791015625;35.25305331146963
61740;BME280;47645;45.288;12.038;2022-08-21T15:50:47;1008.0724043461876;;;37.26484375;36.21160992946237
61740;BME280;47645;45.288;12.038;2022-08-21T16:00:49;1008.0831303744725;;;36.44921875;36.83115822822259
61740;BME280;47645;45.288;12.038;2022-08-21T16:10:52;1008.1494736511829;;;36.3013671875;36.94019803495759
61740;BME280;47645;45.288;12.038;2022-08-21T16:20:53;1008.1342007909265;;;36.2146484375;37.41171012079976
61740;BME280;47645;45.288;12.038;2022-08-21T16:30:54;1008.1799992382662;;;35.5775390625;38.13819131831613
61740;BME280;47645;45.288;12.038;2022-08-21T16:40:56;1008.0980756191218;;;35.2205078125;38.0407772196259
61740;BME280;47645;45.288;12.038;2022-08-21T16:50:58;1008.0219542315704;;;34.3947265625;39.35841633291549
61740;BME280;47645;45.288;12.038;2022-08-21T17:01:04;1007.9762476068353;;;34.13984375;39.72724451460656
61740;BME280;47645;45.288;12.038;2022-08-21T17:11:02;1007.9374572337845;;;33.4873046875;40.901435150427645
61740;BME280;47645;45.288;12.038;2022-08-21T17:21:04;1007.9519539762384;;;33.17109375;41.92398928839479
61740;BME280;47645;45.288;12.038;2022-08-21T17:31:08;1007.9276799408243;;;32.6869140625;42.90322468600319
61740;BME280;47645;45.288;12.038;2022-08-21T17:41:08;1008.0358048645296;;;32.126171875;44.38009412506133
61740;BME280;47645;45.288;12.038;2022-08-21T17:51:10;1008.1325910416242;;;31.5857421875;45.72334118210221
61740;BME280;47645;45.288;12.038;2022-08-21T18:01:11;1008.3206982673139;;;30.8515625;46.96658814728248
61740;BME280;47645;45.288;12.038;2022-08-21T18:11:13;1008.2736034860259;;;30.214453125;48.973755093737644
61740;BME280;47645;45.288;12.038;2022-08-21T18:21:14;1008.4566566213512;;;29.4751953125;50.86636297859422
61740;BME280;47645;45.288;12.038;2022-08-21T18:31:15;1008.5576591016828;;;29.5822265625;50.9329339230024
61740;BME280;47645;45.288;12.038;2022-08-21T18:41:18;1008.6459300562618;;;29.225390625;51.36894192133788
61740;BME280;47645;45.288;12.038;2022-08-21T18:51:19;1008.7694253004927;;;28.89921875;52.35939935955528
61740;BME280;47645;45.288;12.038;2022-08-21T19:01:22;1008.8905850133865;;;28.0529296875;54.16557035831357
61740;BME280;47645;45.288;12.038;2022-08-21T19:11:23;1008.9800994868372;;;28.1142578125;53.99277921270345
61740;BME280;47645;45.288;12.038;2022-08-21T19:21:23;1008.8998469968828;;;27.996875;53.87882448503759
61740;BME280;47645;45.288;12.038;2022-08-21T19:31:27;1009.0588937821001;;;27.273046875;55.878996128403806
61740;BME280;47645;45.288;12.038;2022-08-21T19:41:32;1009.1197677769563;;;26.951953125;56.81369471197
61740;BME280;47645;45.288;12.038;2022-08-21T19:51:28;1009.1080839705045;;;26.671484375;57.5918524626091
61740;BME280;47645;45.288;12.038;2022-08-21T20:01:29;1009.1125025579499;;;26.4982421875;57.92712167069686
61740;BME280;47645;45.288;12.038;2022-08-21T20:11:34;1009.2050771964218;;;26.885546875;56.85775935071118
61740;BME280;47645;45.288;12.038;2022-08-21T20:21:34;1009.4106116702517;;;26.9927734375;55.67856041618406
61740;BME280;47645;45.288;12.038;2022-08-21T20:31:33;1009.4170599694771;;;26.9978515625;56.0032132158182
61740;BME280;47645;45.288;12.038;2022-08-21T20:41:37;1009.3011996331328;;;26.6103515625;56.82527981335612
61740;BME280;47645;45.288;12.038;2022-08-21T20:51:41;1009.2369467492383;;;26.7990234375;56.07813190419937
61740;BME280;47645;45.288;12.038;2022-08-21T21:01:39;1009.3345905541562;;;25.8099609375;58.779812926846944
61740;BME280;47645;45.288;12.038;2022-08-21T21:11:42;1009.5302757370172;;;25.4888671875;59.460454905496874
61740;BME280;47645;45.288;12.038;2022-08-21T21:21:46;1009.5120599396369;;;25.213671875;60.7463947279297
61740;BME280;47645;45.288;12.038;2022-08-21T21:31:41;1009.7300954548263;;;24.83125;63.33388663229331
61740;BME280;47645;45.288;12.038;2022-08-21T21:41:49;1010.0244453230714;;;24.48984375;64.72661470406909
61740;BME280;47645;45.288;12.038;2022-08-21T21:51:53;1010.4150741240906;;;24.16875;71.54298449387838
61740;BME280;47645;45.288;12.038;2022-08-21T22:01:48;1010.383475864567;;;24.377734375;75.86548063274128
61740;BME280;47645;45.288;12.038;2022-08-21T22:11:54;1010.2199606867439;;;24.2654296875;81.45815123560827
61740;BME280;47645;45.288;12.038;2022-08-21T22:21:51;1010.1971897805217;;;24.29609375;71.12883553618396
61740;BME280;47645;45.288;12.038;2022-08-21T22:32:08;1009.9809545367008;;;25.6060546875;63.944510067378864
61740;BME280;47645;45.288;12.038;2022-08-21T22:41:50;1009.906430769891;;;25.1474609375;65.90210500662576
61740;BME280;47645;45.288;12.038;2022-08-21T22:51:55;1009.912070538553;;;24.601953125;80.26849509076045
61740;BME280;47645;45.288;12.038;2022-08-21T23:01:56;1009.9303630448715;;;23.873046875;80.3356639246153
61740;BME280;47645;45.288;12.038;2022-08-21T23:11:57;1009.815103051589;;;24.19921875;75.06102437053252
61740;BME280;47645;45.288;12.038;2022-08-21T23:22:02;1009.7804285346559;;;23.9341796875;83.82788755281645
61740;BME280;47645;45.288;12.038;2022-08-21T23:32:02;1009.7064732252227;;;23.9392578125;90.11886020921555
61740;BME280;47645;45.288;12.038;2022-08-21T23:42:03;1009.5564313899544;;;23.689453125;89.85593426780478
61740;BME280;47645;45.288;12.038;2022-08-21T23:52:05;1009.5212420385242;;;23.7302734375;89.53717014923535
